Time;durP1;ratioP1;P1;durP2;ratioP2;P2;SDS_P1;SDS_P2;PMS_P1;PMS_P2;Temp;Humidity;BMP_temperature;BMP_pressure;BME280_temperature;BME280_humidity;BME280_pressure;Samples;Min_cycle;Max_cycle;Signal;HPM_P1;HPM_P2
2023/05/01 00:01:11;;;;;;;13.13;4.23;;;;;;;5.65;62.72;100783.38;4247487;28;20768;-67
2023/05/01 00:03:38;;;;;;;15.57;4.73;;;;;;;5.60;62.57;100777.47;4227330;28;20239;-68
2023/05/01 00:06:04;;;;;;;13.20;4.10;;;;;;;5.66;62.22;100792.31;4233157;28;20231;-66
2023/05/01 00:08:31;;;;;;;11.57;4.20;;;;;;;5.66;62.49;100789.63;4213854;28;20227;-67
2023/05/01 00:11:02;;;;;;;12.63;4.37;;;;;;;5.55;62.55;100785.84;4222014;28;21785;-68
2023/05/01 00:13:29;;;;;;;17.80;4.77;;;;;;;5.58;62.68;100792.81;4197931;28;20320;-66
2023/05/01 00:15:56;;;;;;;11.77;4.40;;;;;;;5.50;62.88;100781.75;4222301;28;20607;-68
2023/05/01 00:18:22;;;;;;;10.17;3.80;;;;;;;5.43;63.21;100783.13;4229231;28;22182;-66
2023/05/01 00:20:49;;;;;;;15.13;4.60;;;;;;;5.34;63.51;100785.50;4225960;28;20312;-65
2023/05/01 00:23:15;;;;;;;12.10;3.93;;;;;;;5.46;62.93;100785.63;4224270;28;20235;-67
2023/05/01 00:25:42;;;;;;;12.90;4.17;;;;;;;5.47;63.01;100780.13;4230841;28;20244;-65
2023/05/01 00:28:09;;;;;;;10.60;4.30;;;;;;;5.40;63.36;100790.44;4233953;28;20231;-65
2023/05/01 00:30:35;;;;;;;14.17;4.30;;;;;;;5.31;63.75;100791.09;4227102;28;20247;-67
2023/05/01 00:33:02;;;;;;;12.33;3.87;;;;;;;5.28;63.71;100790.44;4231530;28;20286;-66
2023/05/01 00:35:28;;;;;;;11.10;4.07;;;;;;;5.24;63.77;100781.72;4218811;28;20580;-68
2023/05/01 00:37:55;;;;;;;12.60;4.13;;;;;;;5.17;64.03;100794.69;4229953;28;20574;-67
2023/05/01 00:40:21;;;;;;;13.63;4.30;;;;;;;5.15;64.38;100779.66;4238774;28;20242;-66
2023/05/01 00:42:48;;;;;;;12.13;4.17;;;;;;;5.16;64.19;100787.59;4233250;28;25800;-66
2023/05/01 00:45:14;;;;;;;10.27;4.33;;;;;;;5.11;64.34;100786.19;4218884;28;20234;-67
2023/05/01 00:47:41;;;;;;;14.10;4.17;;;;;;;5.12;64.48;100793.28;4221788;28;20294;-67
2023/05/01 00:50:08;;;;;;;13.30;4.27;;;;;;;5.16;64.42;100792.97;4226229;28;20235;-66
2023/05/01 00:52:35;;;;;;;10.33;3.80;;;;;;;5.08;64.53;100789.94;4230718;28;20232;-67
2023/05/01 00:55:03;;;;;;;14.40;4.83;;;;;;;4.94;65.24;100788.19;4231752;28;20327;-66
2023/05/01 00:57:31;;;;;;;14.47;4.17;;;;;;;4.87;65.72;100792.25;4220469;28;20239;-67
2023/05/01 00:59:57;;;;;;;11.27;4.20;;;;;;;4.83;65.79;100791.59;4227460;28;20232;-67
2023/05/01 01:02:26;;;;;;;15.30;4.77;;;;;;;4.79;65.98;100790.06;4225295;28;20369;-66
2023/05/01 01:04:52;;;;;;;13.70;4.80;;;;;;;4.72;66.22;100786.91;4221286;28;20241;-66
2023/05/01 01:07:36;;;;;;;11.57;4.67;;;;;;;4.65;66.94;100790.13;4234369;28;20684;-65
2023/05/01 01:10:30;;;;;;;11.27;4.37;;;;;;;4.57;67.14;100796.00;4213214;28;20239;-66
2023/05/01 01:13:15;;;;;;;17.13;4.93;;;;;;;4.53;67.33;100786.41;4229808;28;22296;-67
2023/05/01 01:15:46;;;;;;;10.43;4.23;;;;;;;4.49;67.64;100795.63;4225715;28;20239;-67
2023/05/01 01:18:18;;;;;;;11.33;4.33;;;;;;;4.47;67.66;100794.84;4223247;28;20243;-66
2023/05/01 01:20:54;;;;;;;14.00;5.03;;;;;;;4.40;67.72;100786.34;4211790;28;23384;-66
2023/05/01 01:23:44;;;;;;;13.67;4.60;;;;;;;4.33;68.40;100796.63;4230090;28;20605;-65
2023/05/01 01:26:41;;;;;;;15.60;4.70;;;;;;;4.33;68.11;100793.94;4233659;28;21236;-65
2023/05/01 01:29:38;;;;;;;14.17;4.73;;;;;;;4.42;67.76;100797.84;4234534;28;20234;-67
2023/05/01 01:32:42;;;;;;;14.27;4.57;;;;;;;4.38;67.62;100797.16;4249786;28;20251;-66
2023/05/01 01:35:16;;;;;;;10.50;4.00;;;;;;;4.28;68.33;100793.34;4251926;28;20241;-67
2023/05/01 01:37:51;;;;;;;11.67;3.80;;;;;;;4.34;67.99;100805.50;4217948;28;21080;-66
2023/05/01 01:40:21;;;;;;;17.90;4.50;;;;;;;4.39;67.46;100801.56;4231902;28;20230;-65
2023/05/01 01:43:06;;;;;;;13.60;4.30;;;;;;;4.37;67.90;100808.84;4216495;28;20303;-66
2023/05/01 01:45:37;;;;;;;11.67;4.10;;;;;;;4.35;67.69;100802.72;4230010;28;20412;-66
2023/05/01 01:48:06;;;;;;;13.43;4.20;;;;;;;4.32;68.17;100810.09;4229652;28;20339;-65
2023/05/01 01:50:35;;;;;;;11.87;4.27;;;;;;;4.34;68.28;100810.88;4216679;28;22103;-65
2023/05/01 01:53:03;;;;;;;16.13;4.67;;;;;;;4.39;67.87;100814.09;4219376;28;20423;-66
2023/05/01 01:55:31;;;;;;;11.47;4.13;;;;;;;4.36;67.92;100804.44;4227374;28;20334;-66
2023/05/01 01:57:59;;;;;;;16.03;4.83;;;;;;;4.38;67.42;100810.56;4221609;28;20240;-66
2023/05/01 02:00:27;;;;;;;19.23;4.90;;;;;;;4.33;67.65;100806.47;4232381;28;20502;-68
2023/05/01 02:02:54;;;;;;;14.23;4.40;;;;;;;4.25;68.12;100805.13;4240625;28;20413;-67
2023/05/01 02:05:21;;;;;;;13.63;4.67;;;;;;;4.25;67.80;100805.13;4229498;28;20794;-66
2023/05/01 02:07:48;;;;;;;7.67;3.70;;;;;;;4.19;68.33;100808.19;4209832;28;20239;-67
2023/05/01 02:10:15;;;;;;;13.57;4.87;;;;;;;4.16;68.70;100804.84;4222736;28;20362;-67
2023/05/01 02:12:43;;;;;;;15.23;4.90;;;;;;;4.12;68.47;100804.19;4220896;28;21949;-65
2023/05/01 02:15:10;;;;;;;18.13;4.50;;;;;;;4.08;68.93;100803.53;4226643;28;20227;-66
2023/05/01 02:17:38;;;;;;;12.63;4.80;;;;;;;4.08;68.99;100803.53;4197164;28;20603;-66
2023/05/01 02:20:06;;;;;;;17.63;4.30;;;;;;;4.06;68.92;100783.16;4208818;28;20236;-64
2023/05/01 02:22:33;;;;;;;11.43;4.30;;;;;;;4.14;68.59;100796.94;4210911;28;23024;-67
2023/05/01 02:25:00;;;;;;;12.90;4.23;;;;;;;4.13;68.50;100795.19;4221372;28;20418;-65
2023/05/01 02:27:31;;;;;;;14.23;4.50;;;;;;;4.11;68.58;100797.97;4215883;28;20232;-67
2023/05/01 02:29:57;;;;;;;11.67;4.37;;;;;;;4.09;68.04;100807.94;4228253;28;20231;-66
2023/05/01 02:32:25;;;;;;;14.07;4.30;;;;;;;4.15;67.53;100801.31;4217366;28;20231;-67
2023/05/01 02:34:51;;;;;;;14.40;4.47;;;;;;;4.07;68.37;100799.13;4215913;28;20371;-66
2023/05/01 02:37:18;;;;;;;11.90;4.30;;;;;;;4.04;68.34;100804.66;4222010;28;26453;-67
2023/05/01 02:39:45;;;;;;;12.87;4.57;;;;;;;4.16;67.80;100811.06;4225102;28;20304;-66
2023/05/01 02:42:12;;;;;;;13.17;4.77;;;;;;;4.08;67.99;100802.66;4220225;28;20345;-64
2023/05/01 02:44:43;;;;;;;11.07;4.83;;;;;;;4.08;68.00;100805.31;4224204;28;20242;-65
2023/05/01 02:47:12;;;;;;;13.57;4.37;;;;;;;4.14;67.57;100804.97;4215068;28;20325;-67
2023/05/01 02:49:39;;;;;;;13.73;4.10;;;;;;;4.18;67.52;100801.13;4202418;28;20554;-66
2023/05/01 02:52:06;;;;;;;12.40;3.93;;;;;;;4.20;67.54;100795.66;4224802;28;20231;-66
2023/05/01 02:54:33;;;;;;;11.30;4.43;;;;;;;4.05;68.06;100801.03;4211207;28;20584;-66
2023/05/01 02:57:03;;;;;;;9.60;4.03;;;;;;;4.02;67.90;100798.56;4221492;28;20406;-67
2023/05/01 02:59:29;;;;;;;11.23;4.60;;;;;;;3.89;68.28;100798.44;4199522;28;20308;-67
2023/05/01 03:01:56;;;;;;;15.37;4.70;;;;;;;3.86;68.59;100795.09;4214217;28;20239;-67
2023/05/01 03:04:22;;;;;;;13.03;4.00;;;;;;;3.83;69.18;100798.84;4211641;28;20369;-65
2023/05/01 03:06:49;;;;;;;10.87;4.60;;;;;;;3.85;69.17;100804.97;4214313;28;21294;-67
2023/05/01 03:09:16;;;;;;;12.70;4.77;;;;;;;3.78;69.44;100809.84;4227166;28;20228;-67
2023/05/01 03:11:42;;;;;;;14.10;5.10;;;;;;;3.76;69.43;100805.53;4224722;28;20297;-67
2023/05/01 03:14:10;;;;;;;13.70;4.67;;;;;;;3.70;69.88;100800.56;4225644;28;20330;-66
2023/05/01 03:16:36;;;;;;;12.83;4.57;;;;;;;3.62;70.03;100799.22;4224836;28;20626;-66
2023/05/01 03:19:04;;;;;;;14.77;4.43;;;;;;;3.59;70.28;100799.38;4238467;28;20227;-68
2023/05/01 03:21:31;;;;;;;12.73;4.20;;;;;;;3.58;70.45;100802.16;4238840;28;20297;-67
2023/05/01 03:23:58;;;;;;;12.83;4.47;;;;;;;3.56;71.05;100809.41;4234525;28;20642;-65
2023/05/01 03:26:25;;;;;;;13.47;4.83;;;;;;;3.53;71.01;100804.25;4229045;28;20272;-66
2023/05/01 03:28:52;;;;;;;11.37;4.27;;;;;;;3.58;70.58;100794.13;4231202;28;20675;-66
2023/05/01 03:31:18;;;;;;;10.87;4.30;;;;;;;3.56;70.50;100790.69;4242146;28;22184;-67
2023/05/01 03:33:45;;;;;;;9.90;4.00;;;;;;;3.53;71.26;100790.84;4231528;28;20235;-66
2023/05/01 03:36:12;;;;;;;12.57;4.70;;;;;;;3.56;71.04;100791.53;4226658;28;20243;-66
2023/05/01 03:38:38;;;;;;;12.70;4.73;;;;;;;3.58;70.81;100789.63;4234079;28;20250;-66
2023/05/01 03:41:05;;;;;;;11.07;4.80;;;;;;;3.66;70.84;100789.19;4223543;28;20235;-66
2023/05/01 03:43:31;;;;;;;8.07;4.10;;;;;;;3.67;71.16;100798.06;4216271;28;20232;-66
2023/05/01 03:45:58;;;;;;;11.80;4.60;;;;;;;3.67;71.28;100795.38;4229460;28;20694;-67
2023/05/01 03:48:25;;;;;;;11.17;4.60;;;;;;;3.67;71.34;100790.03;4198557;28;20316;-65
2023/05/01 03:50:51;;;;;;;17.20;5.03;;;;;;;3.78;71.36;100798.25;4223414;28;21761;-65
2023/05/01 03:53:18;;;;;;;9.90;4.47;;;;;;;3.84;70.72;100795.22;4223384;28;20310;-67
2023/05/01 03:55:45;;;;;;;15.83;5.10;;;;;;;3.85;71.23;100806.78;4212566;28;21079;-67
2023/05/01 03:58:11;;;;;;;16.93;5.57;;;;;;;3.88;71.23;100801.22;4228327;28;20400;-66
2023/05/01 04:00:38;;;;;;;16.50;5.77;;;;;;;3.92;70.64;100800.06;4228064;28;20508;-66
2023/05/01 04:03:05;;;;;;;8.57;4.43;;;;;;;4.15;69.92;100800.44;4235556;28;20242;-66
2023/05/01 04:05:32;;;;;;;12.67;5.10;;;;;;;4.14;70.04;100794.25;4224495;28;20420;-65
2023/05/01 04:07:58;;;;;;;17.40;4.67;;;;;;;4.17;70.66;100795.88;4225371;28;20262;-69
2023/05/01 04:10:25;;;;;;;11.00;4.80;;;;;;;4.19;70.55;100796.63;4217950;28;21655;-66
2023/05/01 04:12:51;;;;;;;14.47;5.10;;;;;;;4.20;70.23;100801.00;4224965;28;20337;-65
2023/05/01 04:15:18;;;;;;;11.00;5.10;;;;;;;4.38;69.65;100807.03;4222018;28;23699;-67
2023/05/01 04:17:45;;;;;;;15.13;5.40;;;;;;;4.54;69.41;100807.75;4228250;28;20410;-65
2023/05/01 04:20:11;;;;;;;10.23;4.47;;;;;;;4.65;69.39;100803.53;4216491;28;20255;-67
2023/05/01 04:22:38;;;;;;;13.77;4.90;;;;;;;4.70;69.32;100807.63;4232577;28;20252;-67
2023/05/01 04:25:06;;;;;;;11.67;4.50;;;;;;;4.87;68.55;100801.16;4246065;28;20240;-66
2023/05/01 04:27:33;;;;;;;19.43;5.43;;;;;;;4.94;67.92;100800.75;4223380;28;20255;-67
2023/05/01 04:29:59;;;;;;;15.57;4.47;;;;;;;5.03;67.40;100798.28;4215409;28;20392;-66
2023/05/01 04:32:26;;;;;;;12.40;4.90;;;;;;;5.08;66.95;100798.00;4215555;28;20389;-65
2023/05/01 04:34:52;;;;;;;16.60;4.83;;;;;;;5.17;66.66;100802.75;4222514;28;20461;-66
2023/05/01 04:37:19;;;;;;;15.00;4.23;;;;;;;5.31;66.57;100799.13;4229922;28;20762;-66
2023/05/01 04:39:46;;;;;;;13.53;5.10;;;;;;;5.40;65.72;100800.31;4225762;28;22677;-65
2023/05/01 04:42:12;;;;;;;14.50;4.53;;;;;;;5.58;65.36;100803.56;4214387;28;20239;-66
2023/05/01 04:44:39;;;;;;;11.70;5.40;;;;;;;5.70;65.28;100805.38;4229620;28;20307;-66
2023/05/01 04:47:05;;;;;;;9.83;4.37;;;;;;;5.79;64.89;100808.41;4227778;28;20435;-66
2023/05/01 04:49:32;;;;;;;13.80;5.90;;;;;;;5.87;64.64;100801.53;4220523;28;20645;-66
2023/05/01 04:51:59;;;;;;;14.90;5.23;;;;;;;5.85;64.09;100800.78;4225004;28;20602;-64
2023/05/01 04:54:26;;;;;;;12.33;4.70;;;;;;;5.98;63.94;100805.28;4228134;28;21849;-67
2023/05/01 04:56:53;;;;;;;12.87;5.00;;;;;;;6.11;63.19;100798.13;4225609;28;20236;-68
2023/05/01 04:59:19;;;;;;;14.83;5.17;;;;;;;6.17;60.18;100796.78;4216443;28;20316;-68
2023/05/01 05:01:46;;;;;;;14.47;4.37;;;;;;;6.30;60.99;100800.34;4215246;28;22744;-66
2023/05/01 05:04:13;;;;;;;16.33;4.90;;;;;;;6.41;60.14;100799.56;4225671;28;21263;-67
2023/05/01 05:06:39;;;;;;;12.83;3.90;;;;;;;6.48;60.25;100792.78;4221007;28;22922;-68
2023/05/01 05:09:06;;;;;;;10.47;4.20;;;;;;;6.60;60.15;100788.31;4215899;28;21153;-66
2023/05/01 05:11:32;;;;;;;8.57;3.97;;;;;;;6.60;57.52;100782.06;4215554;28;20227;-67
2023/05/01 05:13:59;;;;;;;10.73;3.50;;;;;;;6.58;54.06;100787.56;4233909;28;21777;-67
2023/05/01 05:16:26;;;;;;;10.67;3.50;;;;;;;6.58;54.92;100790.25;4230552;28;21408;-69
2023/05/01 05:18:55;;;;;;;9.40;3.03;;;;;;;6.76;54.67;100773.72;4224937;28;20334;-67
2023/05/01 05:21:22;;;;;;;8.30;3.23;;;;;;;6.74;55.19;100783.75;4231570;28;20307;-67
2023/05/01 05:23:48;;;;;;;9.77;3.23;;;;;;;6.87;54.18;100779.16;4215123;28;20236;-68
2023/05/01 05:26:15;;;;;;;11.73;3.83;;;;;;;6.99;53.58;100785.44;4226382;28;20245;-69
2023/05/01 05:28:41;;;;;;;6.60;2.93;;;;;;;7.04;51.91;100779.72;4216430;28;20320;-65
2023/05/01 05:31:08;;;;;;;7.23;2.50;;;;;;;7.24;50.30;100776.38;4229790;28;20606;-65
2023/05/01 05:33:34;;;;;;;8.47;2.57;;;;;;;7.21;49.05;100782.00;4235578;28;21267;-65
2023/05/01 05:36:01;;;;;;;11.03;2.93;;;;;;;7.26;48.50;100784.31;4230125;28;20343;-66
2023/05/01 05:38:28;;;;;;;10.17;3.20;;;;;;;7.37;48.31;100789.75;4234195;28;20253;-66
2023/05/01 05:40:54;;;;;;;7.83;2.80;;;;;;;7.54;47.74;100784.91;4235738;28;20310;-67
2023/05/01 05:43:21;;;;;;;8.30;2.40;;;;;;;7.69;47.53;100786.41;4244891;28;22728;-65
2023/05/01 05:45:50;;;;;;;6.07;2.37;;;;;;;7.87;46.83;100781.41;4230441;28;20238;-66
2023/05/01 05:48:17;;;;;;;9.70;2.43;;;;;;;7.93;46.35;100772.81;4223566;28;20258;-67
2023/05/01 05:50:43;;;;;;;6.17;2.33;;;;;;;8.28;45.97;100780.88;4228106;28;20326;-65
2023/05/01 05:53:10;;;;;;;5.37;2.33;;;;;;;8.28;46.52;100776.38;4225099;28;20339;-68
2023/05/01 05:55:37;;;;;;;5.37;2.30;;;;;;;8.48;45.90;100790.97;4231422;28;20340;-66
2023/05/01 05:58:03;;;;;;;5.27;2.10;;;;;;;8.90;45.58;100787.56;4233915;28;20234;-65
2023/05/01 06:00:30;;;;;;;7.63;2.53;;;;;;;9.35;43.63;100778.38;4213655;28;20224;-66
2023/05/01 06:02:57;;;;;;;7.23;2.23;;;;;;;10.89;40.04;100792.88;4231410;28;20242;-68
2023/05/01 06:05:23;;;;;;;8.20;2.70;;;;;;;12.16;36.98;100790.00;4228690;28;22252;-67
2023/05/01 06:07:50;;;;;;;5.20;2.10;;;;;;;12.77;34.66;100784.09;4236885;28;20228;-67
2023/05/01 06:10:17;;;;;;;6.60;2.73;;;;;;;13.05;34.68;100790.34;4246014;28;20235;-63
2023/05/01 06:12:43;;;;;;;9.23;2.10;;;;;;;14.38;32.93;100790.25;4239499;28;20300;-65
2023/05/01 06:15:30;;;;;;;6.73;2.27;;;;;;;15.58;30.99;100780.09;4233433;28;20241;-66
2023/05/01 06:17:57;;;;;;;8.43;2.17;;;;;;;16.12;30.62;100784.97;4233823;28;20236;-64
2023/05/01 06:20:23;;;;;;;7.67;2.50;;;;;;;16.72;29.68;100779.94;4241157;28;22903;-66
2023/05/01 06:22:50;;;;;;;6.67;2.40;;;;;;;18.13;27.18;100790.63;4248153;28;20323;-66
2023/05/01 06:25:18;;;;;;;5.70;2.00;;;;;;;18.32;26.05;100778.22;4240982;28;20336;-64
2023/05/01 06:27:44;;;;;;;5.03;1.97;;;;;;;16.76;27.93;100790.34;4223344;28;20246;-65
2023/05/01 06:30:11;;;;;;;10.07;2.70;;;;;;;17.60;27.20;100786.00;4235907;28;20239;-65
2023/05/01 06:32:38;;;;;;;5.43;2.13;;;;;;;19.47;25.52;100789.44;4253004;28;20707;-66
2023/05/01 06:35:05;;;;;;;10.10;2.40;;;;;;;18.41;25.67;100793.53;4214559;28;21668;-67
2023/05/01 06:37:31;;;;;;;6.63;2.30;;;;;;;18.73;25.85;100790.56;4222538;28;21609;-68
2023/05/01 06:39:58;;;;;;;5.43;2.00;;;;;;;20.88;23.48;100785.66;4237228;28;20258;-68
2023/05/01 06:42:25;;;;;;;7.17;2.60;;;;;;;21.38;23.04;100788.09;4230373;28;20291;-65
2023/05/01 06:44:51;;;;;;;10.27;2.80;;;;;;;21.72;22.87;100788.13;4235504;28;23063;-63
2023/05/01 06:47:18;;;;;;;8.80;2.80;;;;;;;21.00;23.56;100785.09;4220613;28;20840;-63
2023/05/01 06:49:45;;;;;;;7.47;2.57;;;;;;;20.73;23.99;100783.09;4257004;28;20810;-67
2023/05/01 06:52:11;;;;;;;6.97;2.03;;;;;;;20.68;23.58;100782.84;4250116;28;20305;-67
2023/05/01 06:54:38;;;;;;;6.57;2.10;;;;;;;21.15;23.13;100782.16;4222504;28;21901;-67
2023/05/01 06:57:04;;;;;;;7.10;2.50;;;;;;;19.11;25.33;100777.50;4234996;28;20570;-67
2023/05/01 06:59:31;;;;;;;5.27;2.30;;;;;;;18.73;25.77;100776.84;4217282;28;20241;-66
2023/05/01 07:01:58;;;;;;;8.83;2.63;;;;;;;20.19;24.02;100775.63;4231749;28;20347;-67
2023/05/01 07:04:24;;;;;;;5.13;2.03;;;;;;;21.14;23.14;100775.78;4230965;28;20310;-65
2023/05/01 07:06:51;;;;;;;4.23;1.90;;;;;;;21.69;23.19;100775.63;4237801;28;20315;-61
2023/05/01 07:09:18;;;;;;;7.17;2.30;;;;;;;22.06;23.12;100777.91;4218601;28;20337;-67
2023/05/01 07:11:45;;;;;;;5.93;2.53;;;;;;;21.76;22.86;100781.16;4239837;28;20242;-65
2023/05/01 07:14:12;;;;;;;8.73;2.77;;;;;;;21.44;22.60;100769.06;4230277;28;20235;-63
2023/05/01 07:16:38;;;;;;;6.70;2.00;;;;;;;22.10;22.46;100773.66;4229541;28;20546;-63
2023/05/01 07:19:05;;;;;;;6.90;2.47;;;;;;;22.68;21.34;100782.19;4222784;28;20349;-63
2023/05/01 07:21:31;;;;;;;7.63;2.50;;;;;;;22.37;21.64;100778.25;4240275;28;20849;-62
2023/05/01 07:23:58;;;;;;;9.27;2.27;;;;;;;22.41;22.94;100765.75;4225916;28;20227;-66
2023/05/01 07:26:25;;;;;;;6.53;2.07;;;;;;;23.13;21.19;100779.38;4232819;28;20232;-66
2023/05/01 07:28:52;;;;;;;7.27;2.20;;;;;;;24.70;20.30;100776.66;4239515;28;20243;-63
2023/05/01 07:31:18;;;;;;;10.57;2.23;;;;;;;24.40;20.65;100771.06;4229306;28;23192;-65
2023/05/01 07:33:46;;;;;;;5.03;2.50;;;;;;;23.77;20.31;100770.19;4218346;28;20291;-62
2023/05/01 07:36:13;;;;;;;8.87;2.80;;;;;;;20.21;24.21;100770.78;4236348;28;20239;-69
2023/05/01 07:38:40;;;;;;;9.90;2.37;;;;;;;20.23;25.15;100780.50;4230733;28;20251;-68
2023/05/01 07:41:06;;;;;;;6.47;2.30;;;;;;;23.26;21.36;100776.56;4234401;28;21285;-66
2023/05/01 07:43:33;;;;;;;5.60;2.33;;;;;;;22.67;22.07;100773.06;4238725;28;20239;-69
2023/05/01 07:46:00;;;;;;;6.13;2.30;;;;;;;22.56;21.68;100782.88;4232984;28;20239;-68
2023/05/01 07:48:27;;;;;;;4.33;1.87;;;;;;;20.04;25.60;100770.25;4222855;28;20239;-65
2023/05/01 07:50:55;;;;;;;8.17;4.80;;;;;;;18.95;26.70;100773.13;4245265;28;20238;-65
2023/05/01 07:53:21;;;;;;;7.23;2.90;;;;;;;17.96;28.04;100770.78;4228010;28;22040;-66
2023/05/01 07:55:48;;;;;;;7.40;2.70;;;;;;;18.05;27.57;100772.41;4231454;28;20232;-67
2023/05/01 07:58:16;;;;;;;6.03;2.47;;;;;;;17.76;28.92;100770.44;4246560;28;20223;-65
2023/05/01 08:00:45;;;;;;;7.97;2.30;;;;;;;17.64;29.78;100767.31;4250569;28;21253;-66
2023/05/01 08:03:12;;;;;;;12.57;4.70;;;;;;;18.00;28.42;100769.34;4233064;28;20267;-67
2023/05/01 08:05:40;;;;;;;7.53;2.50;;;;;;;17.94;29.36;100773.66;4212668;28;25828;-67
2023/05/01 08:08:08;;;;;;;7.30;2.03;;;;;;;17.50;28.84;100771.69;4248248;28;20585;-68
2023/05/01 08:10:35;;;;;;;7.27;2.07;;;;;;;16.86;29.78;100775.59;4235259;28;21282;-69
2023/05/01 08:13:01;;;;;;;7.87;2.50;;;;;;;16.59;30.02;100775.03;4237321;28;21086;-70
2023/05/01 08:15:28;;;;;;;7.73;2.30;;;;;;;17.00;29.64;100776.72;4229901;28;20233;-69
2023/05/01 08:17:54;;;;;;;11.87;2.97;;;;;;;16.86;30.41;100783.78;4253965;28;25266;-67
2023/05/01 08:20:21;;;;;;;9.02;2.75;;;;;;;16.97;30.10;100772.44;4234967;28;20462;-67
2023/05/01 08:22:48;;;;;;;8.63;2.40;;;;;;;15.76;31.92;100778.03;4227325;28;20299;-65
2023/05/01 08:25:14;;;;;;;8.40;2.80;;;;;;;15.17;33.60;100779.09;4274296;28;22937;-68
2023/05/01 08:27:41;;;;;;;10.47;2.60;;;;;;;15.25;32.77;100770.06;4256990;28;20232;-69
2023/05/01 08:30:08;;;;;;;6.87;2.70;;;;;;;15.59;32.89;100773.63;4255325;28;20239;-67
2023/05/01 08:32:35;;;;;;;8.43;2.53;;;;;;;15.65;32.28;100772.94;4243373;28;20299;-70
2023/05/01 08:35:01;;;;;;;6.73;2.40;;;;;;;16.11;31.51;100775.94;4244980;28;20292;-69
2023/05/01 08:37:28;;;;;;;7.13;2.57;;;;;;;16.03;31.60;100778.69;4238329;28;23019;-69
2023/05/01 08:39:55;;;;;;;9.37;4.07;;;;;;;16.12;31.80;100766.72;4218710;28;20529;-68
2023/05/01 08:42:23;;;;;;;8.03;2.43;;;;;;;16.38;31.07;100771.03;4231121;28;20599;-70
2023/05/01 08:44:51;;;;;;;5.43;2.33;;;;;;;15.92;31.87;100765.41;4254586;28;20598;-69
2023/05/01 08:47:18;;;;;;;5.30;2.73;;;;;;;15.87;32.44;100767.81;4231367;28;20231;-67
2023/05/01 08:49:45;;;;;;;6.60;2.70;;;;;;;15.11;34.26;100766.13;4217184;28;20248;-66
2023/05/01 08:52:13;;;;;;;8.37;2.83;;;;;;;15.12;34.11;100766.97;4220687;28;21151;-68
2023/05/01 08:54:44;;;;;;;6.70;2.40;;;;;;;15.51;32.72;100769.03;4246736;28;20287;-67
2023/05/01 08:57:11;;;;;;;10.00;2.70;;;;;;;15.56;33.33;100772.06;4248998;28;21632;-65
2023/05/01 08:59:39;;;;;;;9.17;2.97;;;;;;;15.73;33.02;100762.00;4227152;28;20250;-68
2023/05/01 09:02:07;;;;;;;6.67;2.13;;;;;;;16.32;31.48;100755.38;4237432;28;20251;-68
2023/05/01 09:04:36;;;;;;;7.43;2.13;;;;;;;16.45;31.92;100763.84;4231909;28;20231;-70
2023/05/01 09:07:03;;;;;;;12.13;2.83;;;;;;;16.30;31.12;100765.63;4263100;28;20531;-67
2023/05/01 09:09:30;;;;;;;9.30;2.53;;;;;;;15.87;31.78;100756.88;4224357;28;20231;-66
2023/05/01 09:12:24;;;;;;;8.10;2.67;;;;;;;15.53;32.65;100761.53;4225718;28;20234;-66
2023/05/01 09:14:52;;;;;;;11.20;2.50;;;;;;;15.46;33.28;100758.63;4224890;28;21093;-68
2023/05/01 09:17:20;;;;;;;6.17;2.13;;;;;;;15.53;32.85;100751.44;4251644;28;20302;-66
2023/05/01 09:19:47;;;;;;;6.47;2.40;;;;;;;15.53;32.59;100758.78;4215864;28;25752;-66
2023/05/01 09:22:14;;;;;;;6.97;2.70;;;;;;;15.68;32.13;100761.66;4242515;28;22124;-69
2023/05/01 09:24:41;;;;;;;12.83;2.60;;;;;;;14.70;34.27;100745.13;4236096;28;21735;-68
2023/05/01 09:27:08;;;;;;;10.17;2.83;;;;;;;14.77;34.37;100749.91;4239188;28;20226;-66
2023/05/01 09:29:41;;;;;;;8.27;2.67;;;;;;;15.10;33.63;100741.75;4234963;28;20242;-68
2023/05/01 09:32:22;;;;;;;6.63;2.33;;;;;;;15.09;32.54;100740.91;4213478;28;20721;-66
2023/05/01 09:34:50;;;;;;;14.00;2.40;;;;;;;15.06;32.79;100735.81;4247624;28;20234;-68
2023/05/01 09:37:33;;;;;;;6.57;2.40;;;;;;;14.84;34.24;100729.97;4223952;28;20393;-64
2023/05/01 09:40:17;;;;;;;8.30;2.70;;;;;;;14.52;34.49;100737.03;4233104;28;21244;-64
2023/05/01 09:42:51;;;;;;;9.17;2.30;;;;;;;14.93;33.84;100728.13;4245703;28;20326;-65
2023/05/01 09:45:18;;;;;;;5.67;2.37;;;;;;;15.20;31.02;100732.41;4249737;28;20238;-64
2023/05/01 09:47:46;;;;;;;7.13;2.23;;;;;;;14.81;31.95;100716.69;4239012;28;21065;-65
2023/05/01 09:50:28;;;;;;;7.97;2.20;;;;;;;15.13;32.47;100720.47;4248482;28;20338;-65
2023/05/01 09:52:55;;;;;;;11.23;2.47;;;;;;;14.72;32.67;100723.13;4235616;28;20233;-64
2023/05/01 09:55:22;;;;;;;7.20;2.37;;;;;;;14.76;33.59;100724.53;4231926;28;20307;-62
2023/05/01 09:57:51;;;;;;;7.03;2.13;;;;;;;14.14;35.36;100717.50;4238960;28;20234;-64
2023/05/01 10:00:20;;;;;;;5.73;2.20;;;;;;;14.44;35.04;100726.13;4221227;28;21097;-66
2023/05/01 10:02:48;;;;;;;7.77;2.30;;;;;;;15.02;32.45;100716.22;4240586;28;20234;-67
2023/05/01 10:05:15;;;;;;;10.07;2.40;;;;;;;14.85;33.21;100706.31;4231504;28;20224;-65
2023/05/01 10:07:59;;;;;;;5.10;1.80;;;;;;;15.22;29.64;100707.66;4220081;28;23342;-65
2023/05/01 10:10:26;;;;;;;7.37;2.20;;;;;;;15.03;31.32;100714.31;4225242;28;20803;-62
2023/05/01 10:12:53;;;;;;;4.73;1.83;;;;;;;14.82;31.31;100706.63;4221475;28;20243;-64
2023/05/01 10:15:20;;;;;;;6.23;1.90;;;;;;;14.77;31.72;100704.41;4243266;28;20386;-69
2023/05/01 10:17:52;;;;;;;5.37;2.27;;;;;;;14.79;31.89;100698.81;4229926;28;20247;-68
2023/05/01 10:20:20;;;;;;;6.63;2.50;;;;;;;15.14;31.92;100699.50;4228548;28;21891;-70
2023/05/01 10:22:47;;;;;;;7.97;1.97;;;;;;;15.17;30.34;100700.00;4233731;28;20243;-69
2023/05/01 10:25:15;;;;;;;7.57;2.23;;;;;;;14.38;31.24;100691.38;4255172;28;21824;-68
2023/05/01 10:27:42;;;;;;;7.63;2.00;;;;;;;14.66;30.23;100691.97;4229369;28;20228;-71
2023/05/01 10:30:09;;;;;;;7.47;2.10;;;;;;;15.07;28.88;100691.13;4234951;28;20250;-71
2023/05/01 10:32:36;;;;;;;10.27;1.87;;;;;;;14.71;29.42;100686.00;4240187;28;20331;-65
2023/05/01 10:35:07;;;;;;;7.43;1.73;;;;;;;14.89;30.52;100680.41;4220338;28;20237;-68
2023/05/01 10:37:45;;;;;;;9.53;2.20;;;;;;;15.12;29.68;100666.94;4236414;28;20556;-65
2023/05/01 10:40:43;;;;;;;6.57;1.93;;;;;;;15.18;28.33;100676.31;4244275;28;20460;-66
2023/05/01 10:43:17;;;;;;;7.30;2.40;;;;;;;15.17;29.29;100666.44;4258065;28;20251;-64
2023/05/01 10:45:46;;;;;;;5.57;2.03;;;;;;;15.05;29.67;100688.59;4234580;28;22237;-66
2023/05/01 10:48:39;;;;;;;10.60;3.37;;;;;;;15.16;30.08;100672.91;4249766;28;20875;-67
2023/05/01 10:51:16;;;;;;;5.77;2.30;;;;;;;14.63;30.42;100664.16;4268482;28;20301;-65
2023/05/01 10:53:44;;;;;;;7.03;2.10;;;;;;;14.93;30.33;100661.81;4222777;28;20231;-67
2023/05/01 10:56:20;;;;;;;5.50;1.83;;;;;;;14.96;29.13;100664.22;4220513;28;25389;-68
2023/05/01 10:58:53;;;;;;;4.43;2.03;;;;;;;14.86;30.15;100664.41;4231331;28;20581;-68
2023/05/01 11:01:30;;;;;;;8.57;1.97;;;;;;;15.15;30.08;100663.03;4250791;28;26275;-65
2023/05/01 11:03:58;;;;;;;6.53;2.07;;;;;;;15.20;29.29;100666.06;4225168;28;20334;-65
2023/05/01 11:06:25;;;;;;;5.77;1.80;;;;;;;15.34;28.33;100656.34;4227416;28;20231;-68
2023/05/01 11:08:52;;;;;;;6.33;1.50;;;;;;;15.31;29.50;100649.38;4236980;28;20244;-68
2023/05/01 11:11:18;;;;;;;7.17;1.80;;;;;;;15.68;28.44;100652.50;4235658;28;20255;-68
2023/05/01 11:13:55;;;;;;;6.30;1.80;;;;;;;15.90;27.95;100645.47;4240049;28;20289;-68
2023/05/01 11:16:42;;;;;;;6.10;2.00;;;;;;;16.11;27.90;100643.97;4265361;28;20312;-65
2023/05/01 11:19:37;;;;;;;5.50;1.87;;;;;;;16.05;26.74;100634.63;4229162;28;20250;-66
2023/05/01 11:22:13;;;;;;;4.07;1.50;;;;;;;15.95;24.72;100629.38;4249342;28;20273;-65
2023/05/01 11:24:41;;;;;;;2.90;1.60;;;;;;;16.14;26.92;100633.56;4223020;28;22489;-65
2023/05/01 11:27:08;;;;;;;4.63;1.67;;;;;;;16.33;27.05;100625.94;4225372;28;20235;-66
2023/05/01 11:29:35;;;;;;;6.57;2.03;;;;;;;16.55;26.28;100626.13;4227406;28;20234;-66
2023/05/01 11:32:01;;;;;;;5.23;1.73;;;;;;;16.30;26.85;100629.91;4245826;28;20236;-66